createdAt,value
2019-05-26T00:03:21.505Z,98165.91
2019-05-26T00:07:30.586Z,98166.96
2019-05-26T00:11:35.269Z,98161.64
2019-05-26T00:15:41.058Z,98161.81
2019-05-26T00:19:47.133Z,98160.30
2019-05-26T00:23:56.190Z,98155.11
2019-05-26T00:28:00.399Z,98146.57
2019-05-26T00:32:06.547Z,98149.53
2019-05-26T00:36:12.263Z,98145.33
2019-05-26T00:40:18.172Z,98145.03
2019-05-26T00:44:23.985Z,98141.25
2019-05-26T00:48:29.853Z,98138.74
2019-05-26T00:52:35.683Z,98136.61
2019-05-26T01:00:49.172Z,98131.30
2019-05-26T01:04:54.877Z,98134.30
2019-05-26T01:09:00.629Z,98130.61
2019-05-26T01:13:07.476Z,98136.56
2019-05-26T01:17:13.260Z,98132.92
2019-05-26T01:21:19.091Z,98146.00
2019-05-26T01:25:24.857Z,98145.00
2019-05-26T01:29:30.590Z,98145.14
2019-05-26T01:33:36.365Z,98149.58
2019-05-26T01:37:43.577Z,98152.75
2019-05-26T01:41:49.315Z,98151.34
2019-05-26T01:45:55.060Z,98159.45
2019-05-26T01:50:00.818Z,98156.95
2019-05-26T01:54:06.686Z,98150.67
2019-05-26T01:58:12.398Z,98146.09
2019-05-26T02:02:18.419Z,98145.89
2019-05-26T02:06:24.127Z,98151.21
2019-05-26T02:10:29.937Z,98142.16
2019-05-26T02:14:35.694Z,98144.78
2019-05-26T02:18:41.367Z,98149.48
2019-05-26T02:22:47.292Z,98149.78
2019-05-26T02:26:53.049Z,98152.59
2019-05-26T02:30:58.766Z,98157.27
2019-05-26T02:35:06.453Z,98154.03
2019-05-26T02:39:12.266Z,98152.46
2019-05-26T02:43:18.359Z,98157.71
2019-05-26T02:47:24.155Z,98151.89
2019-05-26T02:51:30.008Z,98150.56
2019-05-26T02:55:35.715Z,98149.91
2019-05-26T02:59:41.352Z,98154.92
2019-05-26T03:03:47.308Z,98156.85
2019-05-26T03:07:54.553Z,98156.50
2019-05-26T03:12:03.233Z,98164.44
2019-05-26T03:16:11.501Z,98167.86
2019-05-26T03:20:19.610Z,98166.08
2019-05-26T03:24:28.964Z,98169.55
2019-05-26T03:28:34.745Z,98163.29
2019-05-26T03:32:40.791Z,98160.88
2019-05-26T03:36:46.492Z,98167.73
2019-05-26T03:40:52.400Z,98165.00
2019-05-26T03:44:58.080Z,98155.90
2019-05-26T03:49:03.932Z,98156.09
2019-05-26T03:53:09.619Z,98168.19
2019-05-26T03:57:16.369Z,98172.45
2019-05-26T04:01:22.231Z,98162.22
2019-05-26T04:05:27.934Z,98170.92
2019-05-26T04:09:33.769Z,98166.86
2019-05-26T04:13:39.455Z,98169.73
2019-05-26T04:17:45.161Z,98170.25
2019-05-26T04:21:51.087Z,98163.73
2019-05-26T04:25:56.924Z,98171.59
2019-05-26T04:30:02.826Z,98171.97
2019-05-26T04:34:47.076Z,98171.97
2019-05-26T04:38:52.867Z,98174.70
2019-05-26T04:42:58.562Z,98179.47
2019-05-26T04:47:04.463Z,98177.11
2019-05-26T04:51:10.217Z,98179.57
2019-05-26T04:55:16.130Z,98173.05
2019-05-26T04:59:21.986Z,98179.00
2019-05-26T05:03:27.686Z,98181.77
2019-05-26T05:07:33.541Z,98186.52
2019-05-26T05:11:39.399Z,98186.84
2019-05-26T05:15:45.154Z,98185.95
2019-05-26T05:19:50.935Z,98191.78
2019-05-26T05:23:56.714Z,98198.05
2019-05-26T05:28:02.438Z,98206.91
2019-05-26T05:32:08.260Z,98204.93
2019-05-26T05:36:14.157Z,98206.73
2019-05-26T05:40:21.513Z,98204.05
2019-05-26T05:44:27.546Z,98218.84
2019-05-26T05:48:33.402Z,98215.81
2019-05-26T05:52:39.215Z,98219.80
2019-05-26T05:56:44.957Z,98215.70
2019-05-26T06:00:50.695Z,98210.35
2019-05-26T06:04:56.562Z,98215.27
2019-05-26T06:09:02.275Z,98212.05
2019-05-26T06:13:09.021Z,98210.98
2019-05-26T06:17:14.783Z,98212.79
2019-05-26T06:21:20.636Z,98210.78
2019-05-26T06:25:26.686Z,98207.05
2019-05-26T06:29:32.710Z,98214.34
2019-05-26T06:33:38.461Z,98214.91
2019-05-26T06:37:44.293Z,98221.52
2019-05-26T06:41:49.986Z,98222.78
2019-05-26T06:45:56.018Z,98221.91
2019-05-26T06:50:01.703Z,98218.70
2019-05-26T06:54:07.687Z,98214.83
2019-05-26T06:58:13.422Z,98219.74
2019-05-26T07:02:19.404Z,98218.66
2019-05-26T07:06:25.087Z,98213.65
2019-05-26T07:10:30.798Z,98216.47
2019-05-26T07:14:36.676Z,98209.83
2019-05-26T07:18:42.379Z,98212.65
2019-05-26T07:22:48.127Z,98204.12
2019-05-26T07:26:53.882Z,98205.19
2019-05-26T07:30:59.792Z,98213.83
2019-05-26T07:35:07.593Z,98213.20
2019-05-26T07:39:13.420Z,98209.05
2019-05-26T07:43:19.295Z,98203.91
2019-05-26T07:47:24.985Z,98204.17
2019-05-26T07:51:30.690Z,98204.52
2019-05-26T07:55:36.502Z,98203.96
2019-05-26T07:59:42.219Z,98204.26
2019-05-26T08:03:47.909Z,98203.91
2019-05-26T08:07:53.640Z,98207.05
2019-05-26T08:11:59.519Z,98206.42
2019-05-26T08:16:05.278Z,98204.16
2019-05-26T08:24:15.624Z,98198.88
2019-05-26T08:28:21.391Z,98193.53
2019-05-26T08:32:27.173Z,98192.16
2019-05-26T08:36:32.878Z,98185.45
2019-05-26T08:40:38.851Z,98180.32
2019-05-26T08:44:44.524Z,98184.80
2019-05-26T08:48:50.345Z,98181.05
2019-05-26T08:52:56.164Z,98178.61
2019-05-26T08:57:01.853Z,98182.83
2019-05-26T09:01:07.690Z,98171.43
2019-05-26T09:05:14.080Z,98174.13
2019-05-26T09:09:20.827Z,98173.02
2019-05-26T09:13:26.577Z,98177.77
2019-05-26T09:17:32.498Z,98176.16
2019-05-26T09:21:38.965Z,98177.25
2019-05-26T09:25:46.638Z,98167.77
2019-05-26T09:29:52.237Z,98166.93
2019-05-26T09:33:57.933Z,98164.97
2019-05-26T09:38:03.658Z,98159.70
2019-05-26T09:42:13.229Z,98157.84
2019-05-26T09:46:18.999Z,98149.70
2019-05-26T09:50:26.120Z,98145.97
2019-05-26T09:54:31.906Z,98137.16
2019-05-26T09:58:37.665Z,98143.57
2019-05-26T10:02:43.436Z,98131.98
2019-05-26T10:06:49.108Z,98129.73
2019-05-26T10:10:55.439Z,98127.61
2019-05-26T10:15:01.266Z,98128.55
2019-05-26T10:19:07.030Z,98127.72
2019-05-26T10:23:12.713Z,98124.26
2019-05-26T10:27:18.449Z,98124.13
2019-05-26T10:31:24.147Z,98120.75
2019-05-26T10:35:29.859Z,98119.44
2019-05-26T10:39:35.526Z,98115.61
2019-05-26T10:43:47.162Z,98116.65
2019-05-26T10:47:48.821Z,98111.33
2019-05-26T10:51:55.235Z,98107.72
2019-05-26T10:56:01.008Z,98106.63
2019-05-26T11:00:09.113Z,98103.80
2019-05-26T11:04:14.885Z,98100.25
2019-05-26T11:08:20.562Z,98103.49
2019-05-26T11:12:26.279Z,98102.45
2019-05-26T11:16:32.108Z,98099.38
2019-05-26T11:20:38.580Z,98092.84
2019-05-26T11:24:44.276Z,98088.77
2019-05-26T11:28:50.494Z,98085.30
2019-05-26T11:32:59.434Z,98085.36
2019-05-26T11:37:03.745Z,98075.93
2019-05-26T11:41:09.459Z,98073.15
2019-05-26T11:45:18.860Z,98068.86
2019-05-26T11:49:24.484Z,98065.64
2019-05-26T11:53:30.191Z,98064.30
2019-05-26T11:57:37.363Z,98062.58
2019-05-26T12:01:44.018Z,98060.14
2019-05-26T12:05:49.846Z,98055.83
2019-05-26T12:09:55.617Z,98052.68
2019-05-26T12:14:01.395Z,98062.52
2019-05-26T12:18:07.184Z,98053.15
2019-05-26T12:22:12.896Z,98044.48
2019-05-26T12:26:18.563Z,98040.25
2019-05-26T12:30:24.503Z,98035.27
2019-05-26T12:34:30.188Z,98031.20
2019-05-26T12:38:37.528Z,98034.45
2019-05-26T12:42:43.449Z,98028.41
2019-05-26T12:46:49.130Z,98014.97
2019-05-26T12:50:54.912Z,98011.34
2019-05-26T12:55:00.654Z,98008.24
2019-05-26T12:59:06.641Z,98007.00
2019-05-26T13:03:12.394Z,97996.36
2019-05-26T13:07:18.143Z,98007.43
2019-05-26T13:11:23.939Z,98001.72
2019-05-26T13:15:29.662Z,97996.57
2019-05-26T13:19:35.381Z,97984.82
2019-05-26T13:23:41.252Z,97976.94
2019-05-26T13:27:46.974Z,97983.11
2019-05-26T13:31:53.103Z,97982.42
2019-05-26T13:35:58.840Z,97979.23
2019-05-26T13:40:08.896Z,97975.73
2019-05-26T13:44:14.604Z,97972.00
2019-05-26T13:48:20.371Z,97967.25
2019-05-26T13:52:26.237Z,97962.23
2019-05-26T13:56:31.934Z,97957.64
2019-05-26T14:00:38.597Z,97962.70
2019-05-26T14:04:44.369Z,97964.30
2019-05-26T14:08:50.142Z,97954.97
2019-05-26T14:12:55.906Z,97943.92
2019-05-26T14:17:03.385Z,97953.00
2019-05-26T14:21:09.038Z,97944.65
2019-05-26T14:25:16.320Z,97945.64
2019-05-26T14:29:22.104Z,97946.31
2019-05-26T14:33:27.861Z,97945.92
2019-05-26T14:37:33.561Z,97936.30
2019-05-26T14:41:39.764Z,97932.69
2019-05-26T14:45:53.319Z,97933.00
2019-05-26T14:49:53.044Z,97935.10
2019-05-26T14:53:58.773Z,97920.21
2019-05-26T14:58:15.031Z,97922.02
2019-05-26T15:02:12.689Z,97924.48
2019-05-26T15:06:18.386Z,97918.28
2019-05-26T15:10:24.206Z,97921.22
2019-05-26T15:14:29.909Z,97924.09
2019-05-26T15:18:35.829Z,97921.69
2019-05-26T15:22:41.584Z,97915.31
2019-05-26T15:26:47.433Z,97920.77
2019-05-26T15:30:53.191Z,97908.94
2019-05-26T15:34:58.904Z,97909.22
2019-05-26T15:39:06.877Z,97913.88
2019-05-26T15:43:12.577Z,97911.38
2019-05-26T15:47:18.289Z,97900.86
2019-05-26T15:51:24.020Z,97896.88
2019-05-26T15:55:29.819Z,97892.98
2019-05-26T15:59:35.541Z,97892.55
2019-05-26T16:03:41.344Z,97878.84
2019-05-26T16:07:47.105Z,97881.88
2019-05-26T16:11:52.780Z,97872.52
2019-05-26T16:16:06.895Z,97877.81
2019-05-26T16:20:13.290Z,97870.02
2019-05-26T16:24:19.000Z,97880.90
2019-05-26T16:28:24.697Z,97882.73
2019-05-26T16:32:30.448Z,97869.73
2019-05-26T16:36:36.148Z,97874.45
2019-05-26T16:40:41.856Z,97877.40
2019-05-26T16:44:47.913Z,97868.71
2019-05-26T16:48:54.880Z,97859.44
2019-05-26T16:53:01.742Z,97860.61
2019-05-26T16:57:07.724Z,97863.00
2019-05-26T17:01:13.446Z,97868.64
2019-05-26T17:05:19.434Z,97858.14
2019-05-26T17:09:25.140Z,97862.05
2019-05-26T17:13:32.999Z,97864.88
2019-05-26T17:17:38.205Z,97866.70
2019-05-26T17:21:43.933Z,97860.85
2019-05-26T17:25:49.776Z,97864.17
2019-05-26T17:29:55.528Z,97865.67
2019-05-26T17:34:01.288Z,97857.98
2019-05-26T17:38:08.020Z,97863.46
2019-05-26T17:42:13.885Z,97858.01
2019-05-26T17:46:19.567Z,97862.23
2019-05-26T17:50:25.355Z,97864.56
2019-05-26T17:54:31.135Z,97867.91
2019-05-26T17:58:36.821Z,97860.02
2019-05-26T18:02:42.552Z,97854.22
2019-05-26T18:06:48.490Z,97849.54
2019-05-26T18:10:54.214Z,97854.11
2019-05-26T18:15:00.012Z,97848.20
2019-05-26T18:19:05.793Z,97845.92
2019-05-26T18:23:11.576Z,97845.69
2019-05-26T18:27:17.436Z,97836.40
2019-05-26T18:31:23.139Z,97839.42
2019-05-26T18:35:28.960Z,97837.16
2019-05-26T18:39:34.816Z,97837.53
2019-05-26T18:43:40.544Z,97833.48
2019-05-26T18:48:01.303Z,97831.63
2019-05-26T18:51:53.927Z,97829.37
2019-05-26T18:56:00.627Z,97839.89
2019-05-26T19:00:11.139Z,97832.54
2019-05-26T19:04:16.898Z,97832.55
2019-05-26T19:08:23.629Z,97837.45
2019-05-26T19:12:29.799Z,97837.34
2019-05-26T19:16:35.635Z,97833.39
2019-05-26T19:20:41.503Z,97830.53
2019-05-26T19:24:47.303Z,97838.80
2019-05-26T19:28:53.212Z,97843.77
2019-05-26T19:32:58.949Z,97845.84
2019-05-26T19:37:04.874Z,97852.45
2019-05-26T19:41:11.267Z,97855.10
2019-05-26T19:45:17.656Z,97857.79
2019-05-26T19:49:23.545Z,97853.23
2019-05-26T19:53:29.395Z,97856.30
2019-05-26T19:57:35.505Z,97857.84
2019-05-26T20:01:41.630Z,97857.31
2019-05-26T20:05:47.481Z,97860.44
2019-05-26T20:09:53.355Z,97859.87
2019-05-26T20:13:59.053Z,97856.94
2019-05-26T20:18:05.085Z,97861.52
2019-05-26T20:22:10.891Z,97863.59
2019-05-26T20:26:16.935Z,97858.17
2019-05-26T20:30:23.614Z,97864.50
2019-05-26T20:34:29.627Z,97862.96
2019-05-26T20:38:36.099Z,97857.69
2019-05-26T20:42:41.832Z,97858.84
2019-05-26T20:46:47.907Z,97862.63
2019-05-26T20:50:53.836Z,97858.73
2019-05-26T20:55:00.633Z,97865.77
2019-05-26T20:59:06.502Z,97855.97
2019-05-26T21:03:13.312Z,97857.73
2019-05-26T21:07:19.037Z,97853.84
2019-05-26T21:11:24.733Z,97855.06
2019-05-26T21:15:30.433Z,97852.44
2019-05-26T21:19:36.609Z,97852.99
2019-05-26T21:23:42.326Z,97852.34
2019-05-26T21:27:48.070Z,97848.00
2019-05-26T21:31:53.943Z,97846.25
2019-05-26T21:35:59.772Z,97851.21
2019-05-26T21:40:08.020Z,97848.94
2019-05-26T21:44:14.105Z,97848.91
2019-05-26T21:48:20.005Z,97847.73
2019-05-26T21:52:25.703Z,97839.42
2019-05-26T21:56:31.408Z,97843.04
2019-05-26T22:00:38.937Z,97842.06
2019-05-26T22:04:44.678Z,97852.20
2019-05-26T22:08:50.362Z,97841.89
2019-05-26T22:12:57.067Z,97842.30
2019-05-26T22:17:02.808Z,97842.88
2019-05-26T22:21:08.499Z,97838.22
2019-05-26T22:25:14.314Z,97841.05
2019-05-26T22:29:19.994Z,97842.98
2019-05-26T22:33:25.698Z,97841.32
2019-05-26T22:37:31.374Z,97837.81
2019-05-26T22:41:37.244Z,97835.10
2019-05-26T22:45:43.009Z,97839.40
2019-05-26T22:49:48.713Z,97836.77
2019-05-26T22:53:54.396Z,97836.22
2019-05-26T22:58:00.162Z,97834.62
2019-05-26T23:02:06.088Z,97827.08
2019-05-26T23:06:11.796Z,97820.56
2019-05-26T23:10:17.896Z,97816.67
2019-05-26T23:14:23.591Z,97818.58
2019-05-26T23:18:29.451Z,97813.52
2019-05-26T23:22:35.064Z,97813.29
2019-05-26T23:26:40.967Z,97810.50
2019-05-26T23:30:47.287Z,97808.23
2019-05-26T23:34:52.972Z,97805.35
2019-05-26T23:38:58.700Z,97803.70
2019-05-26T23:43:04.392Z,97806.48
2019-05-26T23:47:10.074Z,97799.55
2019-05-26T23:51:15.770Z,97797.67
2019-05-26T23:55:21.478Z,97787.34
2019-05-26T23:59:27.172Z,97785.98
